createdAt,value
2023-03-29T00:00:00.525Z,6.24
2023-03-29T00:02:45.619Z,6.28
2023-03-29T00:05:30.420Z,6.13
2023-03-29T00:08:15.388Z,6.30
2023-03-29T00:11:00.212Z,6.43
2023-03-29T00:13:45.438Z,6.47
2023-03-29T00:16:30.183Z,6.53
2023-03-29T00:19:15.251Z,6.53
2023-03-29T00:22:00.043Z,6.42
2023-03-29T00:24:45.136Z,6.29
2023-03-29T00:27:30.103Z,6.34
2023-03-29T00:30:14.955Z,6.27
2023-03-29T00:32:59.999Z,6.42
2023-03-29T00:35:44.603Z,6.52
2023-03-29T00:38:29.406Z,6.52
2023-03-29T00:41:14.311Z,6.50
2023-03-29T00:43:59.390Z,6.56
2023-03-29T00:46:44.276Z,6.57
2023-03-29T00:49:29.260Z,6.57
2023-03-29T00:52:14.267Z,6.59
2023-03-29T00:54:59.288Z,6.60
2023-03-29T00:57:44.214Z,6.59
2023-03-29T01:00:28.943Z,6.59
2023-03-29T01:03:13.976Z,6.58
2023-03-29T01:05:59.041Z,6.36
2023-03-29T01:08:43.921Z,6.30
2023-03-29T01:11:28.695Z,6.24
2023-03-29T01:14:13.697Z,6.15
2023-03-29T01:16:58.571Z,6.24
2023-03-29T01:19:43.671Z,6.26
2023-03-29T01:22:28.735Z,6.34
2023-03-29T01:25:13.512Z,6.35
2023-03-29T01:27:58.527Z,6.40
2023-03-29T01:30:43.185Z,6.31
2023-03-29T01:33:27.893Z,6.37
2023-03-29T01:36:12.820Z,6.26
2023-03-29T01:38:57.904Z,6.45
2023-03-29T01:41:42.676Z,6.23
2023-03-29T01:44:27.609Z,5.99
2023-03-29T01:47:12.508Z,5.81
2023-03-29T01:49:57.361Z,6.04
2023-03-29T01:52:42.227Z,5.95
2023-03-29T01:55:27.054Z,5.87
2023-03-29T01:58:11.826Z,5.59
2023-03-29T02:00:56.776Z,5.56
2023-03-29T02:03:41.760Z,5.67
2023-03-29T02:06:26.593Z,5.74
2023-03-29T02:09:11.462Z,5.60
2023-03-29T02:11:56.237Z,5.61
2023-03-29T02:14:41.067Z,5.63
2023-03-29T02:17:26.028Z,5.76
2023-03-29T02:20:10.783Z,5.86
2023-03-29T02:22:55.715Z,5.93
2023-03-29T02:25:40.737Z,5.99
2023-03-29T02:28:25.623Z,5.95
2023-03-29T02:31:10.793Z,5.88
2023-03-29T02:33:55.647Z,5.94
2023-03-29T02:36:40.496Z,5.93
2023-03-29T02:39:25.384Z,5.98
2023-03-29T02:42:10.178Z,6.05
2023-03-29T02:44:55.074Z,5.91
2023-03-29T02:47:40.146Z,5.88
2023-03-29T02:50:24.946Z,5.80
2023-03-29T02:53:09.697Z,5.82
2023-03-29T02:55:54.590Z,5.95
2023-03-29T02:58:39.313Z,5.67
2023-03-29T03:01:24.243Z,5.71
2023-03-29T03:04:09.370Z,5.71
2023-03-29T03:06:54.160Z,5.62
2023-03-29T03:09:38.947Z,5.71
2023-03-29T03:12:23.940Z,5.61
2023-03-29T03:15:08.870Z,5.71
2023-03-29T03:17:53.953Z,5.28
2023-03-29T03:20:38.786Z,5.37
2023-03-29T03:23:23.727Z,5.58
2023-03-29T03:26:08.480Z,5.72
2023-03-29T03:28:53.547Z,5.82
2023-03-29T03:31:38.434Z,5.84
2023-03-29T03:34:23.180Z,5.79
2023-03-29T03:37:08.097Z,5.71
2023-03-29T03:39:53.070Z,5.73
2023-03-29T03:42:37.984Z,5.78
2023-03-29T03:45:22.844Z,5.83
2023-03-29T03:48:07.817Z,5.64
2023-03-29T03:50:52.689Z,5.56
2023-03-29T03:53:37.621Z,5.67
2023-03-29T03:56:22.512Z,5.79
2023-03-29T03:59:07.402Z,5.83
2023-03-29T04:01:52.472Z,5.98
2023-03-29T04:04:37.509Z,5.91
2023-03-29T04:07:22.515Z,5.85
2023-03-29T04:10:07.381Z,5.60
2023-03-29T04:12:52.370Z,5.63
2023-03-29T04:15:37.236Z,5.58
2023-03-29T04:18:22.215Z,5.55
2023-03-29T04:21:07.018Z,5.74
2023-03-29T04:23:52.011Z,5.65
2023-03-29T04:26:36.935Z,5.49
2023-03-29T04:29:21.759Z,5.55
2023-03-29T04:32:06.655Z,5.42
2023-03-29T04:34:51.472Z,5.40
2023-03-29T04:37:36.435Z,5.61
2023-03-29T04:40:21.187Z,5.57
2023-03-29T04:43:06.010Z,5.58
2023-03-29T04:45:50.921Z,5.59
2023-03-29T04:48:35.822Z,5.74
2023-03-29T04:51:20.926Z,5.61
2023-03-29T04:54:05.819Z,5.60
2023-03-29T04:56:50.863Z,5.62
2023-03-29T04:59:35.613Z,5.60
2023-03-29T05:02:20.568Z,5.60
2023-03-29T05:05:05.372Z,5.63
2023-03-29T05:07:51.795Z,5.66
2023-03-29T05:10:36.818Z,5.75
2023-03-29T05:13:21.768Z,5.64
2023-03-29T05:16:06.778Z,5.48
2023-03-29T05:18:51.573Z,5.27
2023-03-29T05:21:36.569Z,5.22
2023-03-29T05:24:21.368Z,5.25
2023-03-29T05:27:06.257Z,5.32
2023-03-29T05:29:51.131Z,5.42
2023-03-29T05:32:36.093Z,5.58
2023-03-29T05:35:20.987Z,5.58
2023-03-29T05:38:05.852Z,5.61
2023-03-29T05:40:50.941Z,5.16
2023-03-29T05:43:35.731Z,4.98
2023-03-29T05:46:20.605Z,5.02
2023-03-29T05:49:05.424Z,4.82
2023-03-29T05:51:50.347Z,4.82
2023-03-29T05:54:35.365Z,4.97
2023-03-29T05:57:20.368Z,5.05
2023-03-29T06:00:05.266Z,5.03
2023-03-29T06:02:50.428Z,4.92
2023-03-29T06:05:35.250Z,5.00
2023-03-29T06:08:20.172Z,5.08
2023-03-29T06:11:05.495Z,5.14
2023-03-29T06:13:50.804Z,5.27
2023-03-29T06:16:35.978Z,5.26
2023-03-29T06:19:20.852Z,5.32
2023-03-29T06:22:05.712Z,5.40
2023-03-29T06:24:50.772Z,5.50
2023-03-29T06:27:35.634Z,5.53
2023-03-29T06:30:20.511Z,5.45
2023-03-29T06:33:05.338Z,5.36
2023-03-29T06:35:50.307Z,5.18
2023-03-29T06:38:35.064Z,5.33
2023-03-29T06:41:19.920Z,5.44
2023-03-29T06:46:49.836Z,5.63
2023-03-29T06:49:34.765Z,5.65
2023-03-29T06:52:19.565Z,5.68
2023-03-29T06:55:04.379Z,5.54
2023-03-29T06:57:49.287Z,5.69
2023-03-29T07:00:34.165Z,5.11
2023-03-29T07:03:19.042Z,5.33
2023-03-29T07:06:03.994Z,5.48
2023-03-29T07:08:48.983Z,5.34
2023-03-29T07:11:33.894Z,5.47
2023-03-29T07:14:18.810Z,5.76
2023-03-29T07:17:03.719Z,5.74
2023-03-29T07:19:48.670Z,5.73
2023-03-29T07:22:33.503Z,5.74
2023-03-29T07:25:18.542Z,5.30
2023-03-29T07:28:03.314Z,5.43
2023-03-29T07:30:48.364Z,5.64
2023-03-29T07:33:33.469Z,5.72
2023-03-29T07:36:18.287Z,5.78
2023-03-29T07:39:03.175Z,5.72
2023-03-29T07:41:47.947Z,5.92
2023-03-29T07:44:32.910Z,5.86
2023-03-29T07:47:17.624Z,5.65
2023-03-29T07:50:02.476Z,5.53
2023-03-29T07:52:47.382Z,5.38
2023-03-29T07:55:32.379Z,5.47
2023-03-29T07:58:17.287Z,5.38
2023-03-29T08:01:02.367Z,5.59
2023-03-29T08:03:47.594Z,5.74
2023-03-29T08:06:32.492Z,5.91
2023-03-29T08:09:17.239Z,6.03
2023-03-29T08:12:02.093Z,6.08
2023-03-29T08:14:47.112Z,6.10
2023-03-29T08:17:31.891Z,6.19
2023-03-29T08:20:16.880Z,6.17
2023-03-29T08:23:01.830Z,6.26
2023-03-29T08:25:46.667Z,6.28
2023-03-29T08:28:31.612Z,6.32
2023-03-29T08:31:16.532Z,6.24
2023-03-29T08:34:01.384Z,6.31
2023-03-29T08:36:46.298Z,5.92
2023-03-29T08:39:31.143Z,6.12
2023-03-29T08:42:15.997Z,5.75
2023-03-29T08:45:00.866Z,5.97
2023-03-29T08:47:45.931Z,6.06
2023-03-29T08:50:30.736Z,6.08
2023-03-29T08:53:15.626Z,6.20
2023-03-29T08:56:00.594Z,6.25
2023-03-29T08:58:45.543Z,6.32
2023-03-29T09:01:30.492Z,6.45
2023-03-29T09:04:15.194Z,6.42
2023-03-29T09:07:00.135Z,6.38
2023-03-29T09:09:45.153Z,6.36
2023-03-29T09:12:30.118Z,6.27
2023-03-29T09:15:14.973Z,6.42
2023-03-29T09:17:59.991Z,6.49
2023-03-29T09:20:44.745Z,6.16
2023-03-29T09:23:29.766Z,6.49
2023-03-29T09:26:14.595Z,6.63
2023-03-29T09:28:59.650Z,6.69
2023-03-29T09:31:44.544Z,6.60
2023-03-29T09:34:29.305Z,6.37
2023-03-29T09:37:14.258Z,6.56
2023-03-29T09:39:59.303Z,6.59
2023-03-29T09:42:44.341Z,6.53
2023-03-29T09:45:29.170Z,6.41
2023-03-29T09:48:15.518Z,6.63
2023-03-29T09:51:00.401Z,6.68
2023-03-29T09:53:45.437Z,6.68
2023-03-29T09:56:30.269Z,6.44
2023-03-29T09:59:15.162Z,6.56
2023-03-29T10:02:00.056Z,6.67
2023-03-29T10:04:44.907Z,6.83
2023-03-29T10:07:29.908Z,6.66
2023-03-29T10:10:14.618Z,6.81
2023-03-29T10:12:59.539Z,6.49
2023-03-29T10:15:44.439Z,6.82
2023-03-29T10:18:29.231Z,6.96
2023-03-29T10:21:14.140Z,7.15
2023-03-29T10:23:59.167Z,7.15
2023-03-29T10:26:44.132Z,7.35
2023-03-29T10:29:29.037Z,7.36
2023-03-29T10:32:14.030Z,7.51
2023-03-29T10:34:58.964Z,7.58
2023-03-29T10:37:43.957Z,7.61
2023-03-29T10:40:28.733Z,7.54
2023-03-29T10:43:13.693Z,7.83
2023-03-29T10:45:58.696Z,8.19
2023-03-29T10:48:43.583Z,8.02
2023-03-29T10:51:28.514Z,8.24
2023-03-29T10:54:13.114Z,7.58
2023-03-29T10:56:58.173Z,7.71
2023-03-29T10:59:42.912Z,7.19
2023-03-29T11:02:27.932Z,7.26
2023-03-29T11:05:14.506Z,7.52
2023-03-29T11:07:59.397Z,7.68
2023-03-29T11:10:44.391Z,7.77
2023-03-29T11:13:29.208Z,7.80
2023-03-29T11:16:14.444Z,7.37
2023-03-29T11:18:59.491Z,7.68
2023-03-29T11:21:44.387Z,7.52
2023-03-29T11:24:29.387Z,7.96
2023-03-29T11:27:14.353Z,7.77
2023-03-29T11:29:59.192Z,7.39
2023-03-29T11:32:44.164Z,7.63
2023-03-29T11:35:29.056Z,7.98
2023-03-29T11:38:14.082Z,8.14
2023-03-29T11:40:59.246Z,8.47
2023-03-29T11:43:44.186Z,8.07
2023-03-29T11:46:29.128Z,7.95
2023-03-29T11:49:13.980Z,8.09
2023-03-29T11:51:59.117Z,8.42
2023-03-29T11:54:44.127Z,7.93
2023-03-29T11:57:29.156Z,8.26
2023-03-29T12:00:14.321Z,7.92
2023-03-29T12:02:59.217Z,7.71
2023-03-29T12:05:44.335Z,7.92
2023-03-29T12:08:29.056Z,8.35
2023-03-29T12:11:13.967Z,8.53
2023-03-29T12:13:58.820Z,8.52
2023-03-29T12:16:43.912Z,8.60
2023-03-29T12:19:28.510Z,8.53
2023-03-29T12:22:13.377Z,8.48
2023-03-29T12:24:58.522Z,8.70
2023-03-29T12:27:43.404Z,8.95
2023-03-29T12:30:28.552Z,9.18
2023-03-29T12:33:15.815Z,9.42
2023-03-29T12:36:00.870Z,9.59
2023-03-29T12:38:45.776Z,9.76
2023-03-29T12:41:30.539Z,9.87
2023-03-29T12:44:15.771Z,9.96
2023-03-29T12:47:00.544Z,10.08
2023-03-29T12:49:45.456Z,10.18
2023-03-29T12:52:30.378Z,10.10
2023-03-29T12:55:15.348Z,10.27
2023-03-29T12:58:00.192Z,10.14
2023-03-29T13:00:45.396Z,10.25
2023-03-29T13:03:30.270Z,10.31
2023-03-29T13:06:15.370Z,10.36
2023-03-29T13:09:00.371Z,10.43
2023-03-29T13:11:45.343Z,10.45
2023-03-29T13:14:30.374Z,10.60
2023-03-29T13:17:18.756Z,10.65
2023-03-29T13:20:03.980Z,10.75
2023-03-29T13:22:49.050Z,10.75
2023-03-29T13:25:33.943Z,10.73
2023-03-29T13:28:18.886Z,10.69
2023-03-29T13:31:03.719Z,10.57
2023-03-29T13:33:48.544Z,10.63
2023-03-29T13:36:33.528Z,10.75
2023-03-29T13:39:18.604Z,10.83
2023-03-29T13:42:03.633Z,10.83
2023-03-29T13:44:48.341Z,10.82
2023-03-29T13:47:33.486Z,10.69
2023-03-29T13:50:18.317Z,10.74
2023-03-29T13:53:03.166Z,10.85
2023-03-29T13:55:47.951Z,10.46
2023-03-29T13:58:33.053Z,10.65
2023-03-29T14:01:18.015Z,10.62
2023-03-29T14:04:03.712Z,10.77
2023-03-29T14:06:48.899Z,10.63
2023-03-29T14:09:33.903Z,10.77
2023-03-29T14:12:19.576Z,10.76
2023-03-29T14:15:04.173Z,10.33
2023-03-29T14:17:49.188Z,10.52
2023-03-29T14:20:34.144Z,10.58
2023-03-29T14:23:18.979Z,10.60
2023-03-29T14:26:04.138Z,10.72
2023-03-29T14:28:49.497Z,10.73
2023-03-29T14:31:34.409Z,10.90
2023-03-29T14:34:18.992Z,10.85
2023-03-29T14:37:03.905Z,10.91
2023-03-29T14:39:48.806Z,10.96
2023-03-29T14:42:33.729Z,10.93
2023-03-29T14:45:18.571Z,11.04
2023-03-29T14:48:03.537Z,10.98
2023-03-29T14:50:48.598Z,11.06
2023-03-29T14:53:33.423Z,11.07
2023-03-29T14:56:18.353Z,11.21
2023-03-29T14:59:03.172Z,11.29
2023-03-29T15:01:48.287Z,11.32
2023-03-29T15:04:33.008Z,11.30
2023-03-29T15:07:17.707Z,11.24
2023-03-29T15:10:02.555Z,11.23
2023-03-29T15:12:47.461Z,11.15
2023-03-29T15:15:32.481Z,11.08
2023-03-29T15:18:17.320Z,11.29
2023-03-29T15:21:02.269Z,11.36
2023-03-29T15:23:47.157Z,11.35
2023-03-29T15:26:31.877Z,11.39
2023-03-29T15:29:16.784Z,11.47
2023-03-29T15:32:01.634Z,11.45
2023-03-29T15:34:46.500Z,11.49
2023-03-29T15:37:31.430Z,11.55
2023-03-29T15:40:16.631Z,11.64
2023-03-29T15:43:01.271Z,11.49
2023-03-29T15:45:47.809Z,11.52
2023-03-29T15:48:32.522Z,11.53
2023-03-29T15:51:17.495Z,11.61
2023-03-29T15:54:02.438Z,11.67
2023-03-29T15:56:47.454Z,11.70
2023-03-29T15:59:32.051Z,11.73
2023-03-29T16:02:17.113Z,11.72
2023-03-29T16:05:02.139Z,11.62
2023-03-29T16:07:47.037Z,11.56
2023-03-29T16:10:32.096Z,11.61
2023-03-29T16:13:16.971Z,11.57
2023-03-29T16:16:02.125Z,11.59
2023-03-29T16:18:47.320Z,11.62
2023-03-29T16:21:32.162Z,11.67
2023-03-29T16:24:17.058Z,11.69
2023-03-29T16:27:01.961Z,11.71
2023-03-29T16:29:46.834Z,11.73
2023-03-29T16:32:31.684Z,11.72
2023-03-29T16:35:16.752Z,11.81
2023-03-29T16:38:01.753Z,11.86
2023-03-29T16:40:46.637Z,11.78
2023-03-29T16:43:31.617Z,11.78
2023-03-29T16:46:16.517Z,11.68
2023-03-29T16:49:01.337Z,11.50
2023-03-29T16:51:46.296Z,11.44
2023-03-29T16:54:31.003Z,11.63
2023-03-29T16:57:16.028Z,11.41
2023-03-29T17:00:00.835Z,11.38
2023-03-29T17:02:45.562Z,11.32
2023-03-29T17:05:30.471Z,11.33
2023-03-29T17:08:15.400Z,11.16
2023-03-29T17:11:00.225Z,11.33
2023-03-29T17:13:44.988Z,11.26
2023-03-29T17:16:29.975Z,11.23
2023-03-29T17:19:14.806Z,11.27
2023-03-29T17:21:59.581Z,11.23
2023-03-29T17:24:44.584Z,11.27
2023-03-29T17:27:29.503Z,11.27
2023-03-29T17:30:14.479Z,11.25
2023-03-29T17:32:59.416Z,11.27
2023-03-29T17:35:44.389Z,11.34
2023-03-29T17:38:29.445Z,11.12
2023-03-29T17:41:14.434Z,11.09
2023-03-29T17:43:59.413Z,11.08
2023-03-29T17:46:44.312Z,11.04
2023-03-29T17:49:29.302Z,11.04
2023-03-29T17:52:14.009Z,11.02
2023-03-29T17:54:58.942Z,10.99
2023-03-29T17:57:44.039Z,10.95
2023-03-29T18:00:29.022Z,10.86
2023-03-29T18:03:14.030Z,10.81
2023-03-29T18:05:58.733Z,10.87
2023-03-29T18:08:43.272Z,10.74
2023-03-29T18:11:28.261Z,10.73
2023-03-29T18:14:13.272Z,10.79
2023-03-29T18:16:58.305Z,10.75
2023-03-29T18:19:43.065Z,10.68
2023-03-29T18:22:28.062Z,10.66
2023-03-29T18:25:12.753Z,10.59
2023-03-29T18:27:57.810Z,10.67
2023-03-29T18:30:42.864Z,10.68
2023-03-29T18:33:27.870Z,10.63
2023-03-29T18:36:13.495Z,10.64
2023-03-29T18:38:59.541Z,10.59
2023-03-29T18:41:44.635Z,10.45
2023-03-29T18:44:29.435Z,10.46
2023-03-29T18:47:14.360Z,10.34
2023-03-29T18:49:59.210Z,10.42
2023-03-29T18:52:44.195Z,10.45
2023-03-29T18:55:29.231Z,10.45
2023-03-29T18:58:14.221Z,10.52
2023-03-29T19:00:59.154Z,10.45
2023-03-29T19:03:44.084Z,10.44
2023-03-29T19:06:28.883Z,10.36
2023-03-29T19:09:13.852Z,10.32
2023-03-29T19:11:58.791Z,10.40
2023-03-29T19:14:43.646Z,10.41
2023-03-29T19:17:28.752Z,10.44
2023-03-29T19:20:13.592Z,10.41
2023-03-29T19:22:58.492Z,10.43
2023-03-29T19:25:43.297Z,10.40
2023-03-29T19:28:28.115Z,10.39
2023-03-29T19:31:12.813Z,10.38
2023-03-29T19:33:57.636Z,10.40
2023-03-29T19:36:42.785Z,10.39
2023-03-29T19:39:27.652Z,10.43
2023-03-29T19:42:12.660Z,10.41
2023-03-29T19:44:57.542Z,10.40
2023-03-29T19:47:42.979Z,10.41
2023-03-29T19:50:27.899Z,10.40
2023-03-29T19:53:12.885Z,10.31
2023-03-29T19:55:57.840Z,10.27
2023-03-29T19:58:42.902Z,10.26
2023-03-29T20:01:27.812Z,10.34
2023-03-29T20:04:12.679Z,10.27
2023-03-29T20:06:57.618Z,10.25
2023-03-29T20:09:45.105Z,10.20
2023-03-29T20:12:30.501Z,10.23
2023-03-29T20:15:15.367Z,10.23
2023-03-29T20:18:00.305Z,10.18
2023-03-29T20:20:45.136Z,10.15
2023-03-29T20:23:30.029Z,10.08
2023-03-29T20:26:14.869Z,10.12
2023-03-29T20:28:59.693Z,10.14
2023-03-29T20:31:44.749Z,10.06
2023-03-29T20:34:29.575Z,10.14
2023-03-29T20:37:14.484Z,10.18
2023-03-29T20:39:59.472Z,10.09
2023-03-29T20:42:44.327Z,10.14
2023-03-29T20:45:31.708Z,10.12
2023-03-29T20:48:22.213Z,10.14
2023-03-29T20:51:07.096Z,10.17
2023-03-29T20:53:52.261Z,10.00
2023-03-29T20:56:36.992Z,10.05
2023-03-29T20:59:21.936Z,9.98
2023-03-29T21:02:07.115Z,9.97
2023-03-29T21:04:52.025Z,10.00
2023-03-29T21:07:37.035Z,10.04
2023-03-29T21:10:21.899Z,10.11
2023-03-29T21:13:06.821Z,10.06
2023-03-29T21:15:51.750Z,10.05
2023-03-29T21:18:36.767Z,10.07
2023-03-29T21:21:22.743Z,10.09
2023-03-29T21:24:07.543Z,10.06
2023-03-29T21:26:52.483Z,10.06
2023-03-29T21:29:37.257Z,10.07
2023-03-29T21:32:22.031Z,10.06
2023-03-29T21:35:06.707Z,10.06
2023-03-29T21:37:51.574Z,10.08
2023-03-29T21:40:36.358Z,10.08
2023-03-29T21:43:21.351Z,10.04
2023-03-29T21:46:06.350Z,10.05
2023-03-29T21:48:51.192Z,10.11
2023-03-29T21:51:36.150Z,10.07
2023-03-29T21:54:20.931Z,10.02
2023-03-29T21:57:06.003Z,9.97
2023-03-29T21:59:50.750Z,9.97
2023-03-29T22:02:35.805Z,9.99
2023-03-29T22:05:20.547Z,9.97
2023-03-29T22:08:05.428Z,9.97
2023-03-29T22:10:50.409Z,9.95
2023-03-29T22:13:35.343Z,9.98
2023-03-29T22:16:20.468Z,9.99
2023-03-29T22:19:05.365Z,9.96
2023-03-29T22:21:50.242Z,10.03
2023-03-29T22:24:35.166Z,10.02
2023-03-29T22:27:20.094Z,9.99
2023-03-29T22:30:04.823Z,9.92
2023-03-29T22:32:49.777Z,9.93
2023-03-29T22:35:34.737Z,9.90
2023-03-29T22:38:19.545Z,9.95
2023-03-29T22:41:04.709Z,9.91
2023-03-29T22:43:49.819Z,9.93
2023-03-29T22:46:34.808Z,9.30
2023-03-29T22:49:19.568Z,8.75
2023-03-29T22:52:04.542Z,9.29
2023-03-29T22:54:49.380Z,9.23
2023-03-29T22:57:34.253Z,9.15
2023-03-29T23:00:19.142Z,9.17
2023-03-29T23:03:04.106Z,9.27
2023-03-29T23:05:48.999Z,9.38
2023-03-29T23:08:33.834Z,9.44
2023-03-29T23:11:18.764Z,9.49
2023-03-29T23:14:03.572Z,9.52
2023-03-29T23:16:48.470Z,9.60
2023-03-29T23:19:33.312Z,9.66
2023-03-29T23:22:18.316Z,9.68
2023-03-29T23:25:02.973Z,9.73
2023-03-29T23:27:47.892Z,9.74
2023-03-29T23:30:32.811Z,9.77
2023-03-29T23:33:17.761Z,9.77
2023-03-29T23:36:02.745Z,9.79
2023-03-29T23:38:47.476Z,9.80
2023-03-29T23:41:32.537Z,9.81
2023-03-29T23:44:17.335Z,9.87
2023-03-29T23:47:02.419Z,9.85
2023-03-29T23:49:47.144Z,9.85
2023-03-29T23:52:31.986Z,9.87
2023-03-29T23:55:16.934Z,9.82
2023-03-29T23:58:01.802Z,9.88
